Airfield :
LOGIN :

Register | Disclaimer

   EN    FR    IT 

 










Legend :    VFR   Marginal VFR   IFR   Intensive IFR   Very Intensive IFR
Visi :
Ceiling :
>= 8 km
>= 3000ft
5 to 8 km
1000 to 3000 ft
1500m to 5 km
500 to 1000 ft
800 to 1500m
200 to 500 ft
< 800m
< 200 ft
Symbols :   Thunderstorms  Fog  Heavy snow  Heavy precipitations  Wind > 20 kt
SIGMETs :     Misc.  Thunderstorms  Icing  Turbulence  Mountain Waves  Volcanic Ashes






- Airport Elevation : 9 ft
- IATA code : MIR


DTMB - Habib Bourguliba Int. Monastir

CURRENT METAR :
  • 152000Z AUTO 15007KT NCD 19/14 Q1008

EXPIRED METARs :
  • 151930Z 16006KT 8000 NSC 19/14 Q1008 NOSIG
  • 151900Z 16007KT 8000 NSC 19/14 Q1008 NOSIG
  • 151830Z 17007KT 8000 NSC 19/14 Q1008
  • 151800Z 17008KT 8000 NSC 19/13 Q1007
  • 151730Z 16010KT 8000 NSC 20/13 Q1007

TAF TAF DTMB
Valid from the 15 at 18:00 until the 16 at 18:00 UTC


151700Z 1518/1618 16010KT 9999 FEW020
BECMG 1520/1522 VRB03KT
BECMG 1610/1612 18012KT
BECMG 1614/1616 15020KT



MET'MAP, your aeronautical weather chart ! - Copyright ORBIFLY December 2007 - Disclaimer

ORBIFLY MET'MAP TEAM :

Programming & Development : Alexandra Zaïnal
Concept & Development : Baudouin d'Aumeries
Co-Development & Prog : Marc-Olivier Méhu
Technical & hardware support : Manuel Goepfert

Contact : metmap@orbifly.com




SOURCES & CREDITS :

   NOAA